Time;durP1;ratioP1;P1;durP2;ratioP2;P2;SDS_P1;SDS_P2;PMS_P1;PMS_P2;Temp;Humidity;BMP_temperature;BMP_pressure;BME280_temperature;BME280_humidity;BME280_pressure;Samples;Min_cycle;Max_cycle;Signal;HPM_P1;HPM_P2
2023/07/21 00:00:28;;;;;;;;;;;19.90;73.30;;;;;;5090673;28;19912;-69
2023/07/21 00:02:54;;;;;;;;;;;19.80;73.00;;;;;;5082347;28;20002;-69
2023/07/21 00:05:22;;;;;;;;;;;19.80;73.20;;;;;;5075941;28;19912;-69
2023/07/21 00:07:49;;;;;;;;;;;19.80;73.20;;;;;;5110067;28;19919;-69
2023/07/21 00:10:15;;;;;;;;;;;19.80;73.40;;;;;;5110610;28;19915;-69
2023/07/21 00:12:46;;;;;;;;;;;19.70;73.40;;;;;;5103157;28;20003;-68
2023/07/21 00:15:15;;;;;;;;;;;19.70;73.50;;;;;;5069808;28;19912;-68
2023/07/21 00:17:41;;;;;;;;;;;19.70;73.70;;;;;;5069931;28;19935;-69
2023/07/21 00:20:21;;;;;;;;;;;19.70;73.80;;;;;;5069636;28;19952;-69
2023/07/21 00:22:47;;;;;;;;;;;19.70;74.00;;;;;;5069900;28;19923;-69
2023/07/21 00:25:13;;;;;;;;;;;19.60;73.80;;;;;;5083846;28;19920;-69
2023/07/21 00:27:39;;;;;;;;;;;19.60;73.80;;;;;;5089272;28;20553;-69
2023/07/21 00:30:07;;;;;;;;;;;19.60;74.50;;;;;;5071744;28;19955;-69
2023/07/21 00:32:34;;;;;;;;;;;19.60;74.30;;;;;;5089728;28;19912;-69
2023/07/21 00:34:59;;;;;;;;;;;19.60;74.30;;;;;;5089630;28;20280;-69
2023/07/21 00:37:25;;;;;;;;;;;19.50;74.30;;;;;;5089445;28;19961;-69
2023/07/21 00:39:51;;;;;;;;;;;19.50;74.30;;;;;;5089353;28;19920;-69
2023/07/21 00:42:16;;;;;;;;;;;19.50;74.60;;;;;;5097033;28;19911;-69
2023/07/21 00:44:42;;;;;;;;;;;19.40;74.50;;;;;;5090388;28;19916;-69
2023/07/21 00:47:07;;;;;;;;;;;19.40;74.80;;;;;;5089238;28;19916;-69
2023/07/21 00:49:33;;;;;;;;;;;19.40;74.60;;;;;;5089543;28;20407;-69
2023/07/21 00:51:58;;;;;;;;;;;19.40;74.50;;;;;;5089316;28;19994;-69
2023/07/21 00:54:24;;;;;;;;;;;19.30;74.70;;;;;;5071202;28;20737;-69
2023/07/21 00:56:50;;;;;;;;;;;19.30;74.90;;;;;;5088827;28;19965;-69
2023/07/21 00:59:17;;;;;;;;;;;19.30;74.90;;;;;;5071011;28;19958;-69
2023/07/21 01:01:42;;;;;;;;;;;19.30;75.10;;;;;;5107635;28;19916;-69
2023/07/21 01:04:08;;;;;;;;;;;19.30;75.10;;;;;;5101612;28;19912;-69
2023/07/21 01:06:34;;;;;;;;;;;19.20;75.20;;;;;;5081522;28;20749;-69
2023/07/21 01:09:02;;;;;;;;;;;19.20;75.00;;;;;;5085619;28;19938;-69
2023/07/21 01:11:28;;;;;;;;;;;19.20;75.20;;;;;;5090890;28;19919;-69
2023/07/21 01:13:55;;;;;;;;;;;19.20;75.30;;;;;;5082956;28;19908;-69
2023/07/21 01:16:23;;;;;;;;;;;19.10;75.20;;;;;;5071487;28;19919;-69
2023/07/21 01:18:49;;;;;;;;;;;19.10;75.20;;;;;;5089326;28;19909;-69
2023/07/21 01:21:17;;;;;;;;;;;19.10;75.20;;;;;;5088702;28;19964;-69
2023/07/21 01:23:54;;;;;;;;;;;19.10;75.50;;;;;;5088816;28;19912;-69
2023/07/21 01:26:20;;;;;;;;;;;19.10;75.50;;;;;;5088082;28;19912;-69
2023/07/21 01:28:46;;;;;;;;;;;19.00;75.40;;;;;;5088998;28;20599;-69
2023/07/21 01:31:13;;;;;;;;;;;19.00;75.60;;;;;;5070578;28;19919;-69
2023/07/21 01:33:39;;;;;;;;;;;19.00;75.70;;;;;;5089662;28;20312;-69
2023/07/21 01:36:06;;;;;;;;;;;19.00;75.50;;;;;;5088096;28;20408;-69
2023/07/21 01:38:32;;;;;;;;;;;19.00;75.30;;;;;;5088403;28;19908;-69
2023/07/21 01:40:58;;;;;;;;;;;18.90;75.80;;;;;;5070219;28;19912;-69
2023/07/21 01:43:24;;;;;;;;;;;18.90;75.60;;;;;;5089389;28;20237;-69
2023/07/21 01:45:49;;;;;;;;;;;18.90;76.00;;;;;;5087329;28;19919;-69
2023/07/21 01:48:15;;;;;;;;;;;18.90;76.20;;;;;;5088949;28;19916;-68
2023/07/21 01:50:42;;;;;;;;;;;18.80;75.90;;;;;;5090267;28;19908;-69
2023/07/21 01:53:12;;;;;;;;;;;18.80;76.00;;;;;;5102079;28;19920;-69
2023/07/21 01:55:41;;;;;;;;;;;18.90;76.20;;;;;;5084768;28;20020;-69
2023/07/21 01:58:07;;;;;;;;;;;18.90;76.20;;;;;;5087891;28;19920;-69
2023/07/21 02:00:35;;;;;;;;;;;18.80;76.20;;;;;;5075882;28;19915;-69
2023/07/21 02:03:03;;;;;;;;;;;18.80;76.10;;;;;;5069997;28;19957;-69
2023/07/21 02:05:29;;;;;;;;;;;18.80;76.40;;;;;;5089080;28;19912;-69
2023/07/21 02:07:55;;;;;;;;;;;18.80;76.40;;;;;;5068539;28;19961;-68
2023/07/21 02:10:21;;;;;;;;;;;18.80;76.30;;;;;;5076686;28;20367;-69
2023/07/21 02:12:46;;;;;;;;;;;18.70;76.50;;;;;;5108509;28;19915;-69
2023/07/21 02:15:12;;;;;;;;;;;18.70;76.50;;;;;;5109603;28;19923;-69
2023/07/21 02:17:37;;;;;;;;;;;18.70;76.50;;;;;;5112632;28;19918;-69
2023/07/21 02:20:08;;;;;;;;;;;18.70;76.60;;;;;;5112472;28;20566;-69
2023/07/21 02:22:37;;;;;;;;;;;18.70;76.60;;;;;;5097049;28;20281;-69
2023/07/21 02:25:04;;;;;;;;;;;18.70;76.70;;;;;;5078956;28;19916;-69
2023/07/21 02:27:29;;;;;;;;;;;18.70;76.80;;;;;;5088142;28;19923;-69
2023/07/21 02:29:56;;;;;;;;;;;18.70;76.90;;;;;;5092041;28;19912;-69
2023/07/21 02:32:21;;;;;;;;;;;18.70;76.80;;;;;;5073690;28;20006;-69
2023/07/21 02:34:47;;;;;;;;;;;18.60;76.80;;;;;;5073800;28;19999;-69
2023/07/21 02:37:13;;;;;;;;;;;18.60;76.90;;;;;;5092347;28;19950;-69
2023/07/21 02:39:38;;;;;;;;;;;18.60;76.90;;;;;;5093463;28;19916;-69
2023/07/21 02:42:04;;;;;;;;;;;18.60;77.10;;;;;;5091893;28;19923;-69
2023/07/21 02:44:30;;;;;;;;;;;18.60;77.20;;;;;;5084972;28;19912;-69
2023/07/21 02:46:55;;;;;;;;;;;18.60;77.20;;;;;;5091346;28;19916;-69
2023/07/21 02:49:21;;;;;;;;;;;18.50;77.10;;;;;;5092012;28;19916;-69
2023/07/21 02:51:46;;;;;;;;;;;18.50;77.30;;;;;;5073629;28;20639;-69
2023/07/21 02:54:12;;;;;;;;;;;18.50;77.20;;;;;;5096812;28;20018;-69
2023/07/21 02:56:37;;;;;;;;;;;18.50;77.50;;;;;;5083225;28;20014;-69
2023/07/21 02:59:03;;;;;;;;;;;18.50;77.20;;;;;;5091899;28;20426;-69
2023/07/21 03:01:29;;;;;;;;;;;18.50;77.20;;;;;;5091743;28;19939;-69
2023/07/21 03:03:55;;;;;;;;;;;18.50;77.40;;;;;;5073304;28;20019;-69
2023/07/21 03:06:21;;;;;;;;;;;18.50;77.50;;;;;;5090887;28;19908;-69
2023/07/21 03:08:47;;;;;;;;;;;18.50;77.50;;;;;;5091434;28;19938;-69
2023/07/21 03:11:13;;;;;;;;;;;18.40;77.40;;;;;;5073964;28;20704;-69
2023/07/21 03:13:43;;;;;;;;;;;18.40;77.40;;;;;;5088788;28;20365;-69
2023/07/21 03:16:09;;;;;;;;;;;18.40;77.60;;;;;;5090440;28;19916;-69
2023/07/21 03:18:34;;;;;;;;;;;18.40;77.60;;;;;;5090775;28;19912;-69
2023/07/21 03:21:00;;;;;;;;;;;18.40;77.60;;;;;;5090303;28;19919;-69
2023/07/21 03:23:25;;;;;;;;;;;18.40;77.70;;;;;;5071894;28;19961;-69
2023/07/21 03:25:51;;;;;;;;;;;18.40;77.70;;;;;;5073844;28;19939;-69
2023/07/21 03:28:16;;;;;;;;;;;18.30;77.60;;;;;;5109461;28;20007;-69
2023/07/21 03:30:43;;;;;;;;;;;18.30;77.70;;;;;;5111503;28;19994;-69
2023/07/21 03:33:08;;;;;;;;;;;18.30;77.60;;;;;;5111439;28;19915;-69
2023/07/21 03:35:34;;;;;;;;;;;18.30;78.60;;;;;;5073544;28;19916;-69
2023/07/21 03:38:00;;;;;;;;;;;18.30;77.90;;;;;;5072493;28;19911;-69
2023/07/21 03:40:25;;;;;;;;;;;18.30;77.90;;;;;;5091063;28;19995;-69
2023/07/21 03:42:51;;;;;;;;;;;18.30;78.50;;;;;;5097330;28;19924;-69
2023/07/21 03:45:17;;;;;;;;;;;18.20;77.90;;;;;;5071880;28;19916;-69
2023/07/21 03:47:42;;;;;;;;;;;18.20;77.90;;;;;;5072519;28;19916;-69
2023/07/21 03:50:08;;;;;;;;;;;18.20;77.80;;;;;;5090485;28;19908;-69
2023/07/21 03:52:34;;;;;;;;;;;18.20;78.00;;;;;;5090618;28;20375;-69
2023/07/21 03:54:59;;;;;;;;;;;18.20;77.90;;;;;;5081831;28;20323;-69
2023/07/21 03:57:25;;;;;;;;;;;18.20;78.00;;;;;;5076027;28;19923;-69
2023/07/21 03:59:51;;;;;;;;;;;18.20;78.10;;;;;;5090179;28;20303;-69
2023/07/21 04:02:17;;;;;;;;;;;18.20;78.20;;;;;;5094535;28;20065;-69
2023/07/21 04:04:46;;;;;;;;;;;18.20;78.20;;;;;;5090207;28;19978;-69
2023/07/21 04:07:12;;;;;;;;;;;18.10;78.20;;;;;;5071389;28;19920;-69
2023/07/21 04:09:38;;;;;;;;;;;18.20;78.20;;;;;;5090130;28;19961;-69
2023/07/21 04:12:04;;;;;;;;;;;18.10;78.20;;;;;;5089961;28;19946;-69
2023/07/21 04:14:30;;;;;;;;;;;18.10;78.20;;;;;;5055234;28;19966;-69
2023/07/21 04:16:56;;;;;;;;;;;18.10;78.20;;;;;;5072583;28;19912;-69
2023/07/21 04:19:21;;;;;;;;;;;18.10;78.40;;;;;;5090112;28;20364;-69
2023/07/21 04:21:50;;;;;;;;;;;18.10;78.30;;;;;;5089756;28;19966;-69
2023/07/21 04:24:15;;;;;;;;;;;18.00;78.30;;;;;;5065033;28;20610;-69
2023/07/21 04:26:41;;;;;;;;;;;18.00;78.30;;;;;;5078596;28;19916;-69
2023/07/21 04:29:06;;;;;;;;;;;18.00;78.40;;;;;;5089826;28;20301;-69
2023/07/21 04:31:32;;;;;;;;;;;18.00;78.40;;;;;;5074546;28;20022;-74
2023/07/21 04:33:58;;;;;;;;;;;18.00;78.30;;;;;;5075222;28;19916;-75
2023/07/21 04:36:24;;;;;;;;;;;18.00;78.30;;;;;;5089271;28;19912;-74
2023/07/21 04:38:49;;;;;;;;;;;18.00;78.40;;;;;;5089403;28;19974;-75
2023/07/21 04:41:16;;;;;;;;;;;18.00;78.50;;;;;;5088846;28;19915;-74
2023/07/21 04:43:42;;;;;;;;;;;18.00;78.50;;;;;;5088162;28;20019;-75
2023/07/21 04:46:09;;;;;;;;;;;18.00;78.50;;;;;;5089277;28;20003;-74
2023/07/21 04:48:35;;;;;;;;;;;18.00;78.50;;;;;;5090389;28;19927;-74
2023/07/21 04:51:01;;;;;;;;;;;18.00;78.50;;;;;;5088273;28;19908;-74
2023/07/21 04:53:26;;;;;;;;;;;18.00;78.50;;;;;;5088808;28;19916;-75
2023/07/21 04:55:56;;;;;;;;;;;18.00;78.50;;;;;;5070294;28;20289;-75
2023/07/21 04:58:21;;;;;;;;;;;18.00;78.50;;;;;;5070655;28;19958;-74
2023/07/21 05:00:47;;;;;;;;;;;18.00;78.60;;;;;;5089217;28;19912;-74
2023/07/21 05:03:12;;;;;;;;;;;18.00;78.70;;;;;;5082708;28;20332;-75
2023/07/21 05:05:39;;;;;;;;;;;18.00;78.60;;;;;;5090007;28;20152;-74
2023/07/21 05:08:04;;;;;;;;;;;18.00;78.60;;;;;;5088573;28;19916;-74
2023/07/21 05:10:30;;;;;;;;;;;18.00;78.60;;;;;;5070651;28;20289;-75
2023/07/21 05:12:56;;;;;;;;;;;18.00;78.60;;;;;;5088877;28;20560;-74
2023/07/21 05:15:22;;;;;;;;;;;18.00;78.60;;;;;;5070605;28;19918;-74
2023/07/21 05:17:48;;;;;;;;;;;18.00;78.70;;;;;;5088990;28;19918;-74
2023/07/21 05:20:13;;;;;;;;;;;18.00;78.60;;;;;;5089915;28;19912;-75
2023/07/21 05:22:39;;;;;;;;;;;18.10;78.70;;;;;;5088811;28;20678;-74
2023/07/21 05:25:05;;;;;;;;;;;18.10;78.70;;;;;;5057577;28;19974;-74
2023/07/21 05:27:31;;;;;;;;;;;18.10;78.70;;;;;;5084771;28;19916;-75
2023/07/21 05:29:58;;;;;;;;;;;18.10;78.60;;;;;;5088809;28;19965;-74
2023/07/21 05:32:24;;;;;;;;;;;18.10;78.60;;;;;;5088576;28;19916;-75
2023/07/21 05:34:49;;;;;;;;;;;18.10;78.60;;;;;;5088478;28;19913;-75
2023/07/21 05:37:15;;;;;;;;;;;18.10;78.70;;;;;;5089099;28;19916;-74
2023/07/21 05:39:41;;;;;;;;;;;18.10;78.60;;;;;;5088749;28;19912;-74
2023/07/21 05:42:07;;;;;;;;;;;18.10;78.70;;;;;;5088052;28;20640;-74
2023/07/21 05:44:33;;;;;;;;;;;18.10;78.70;;;;;;5082330;28;19912;-75
2023/07/21 05:46:59;;;;;;;;;;;18.10;78.50;;;;;;5087937;28;20535;-74
2023/07/21 05:49:25;;;;;;;;;;;18.20;78.50;;;;;;5088209;28;20023;-74
2023/07/21 05:51:50;;;;;;;;;;;18.20;78.50;;;;;;5081820;28;19970;-74
2023/07/21 05:54:16;;;;;;;;;;;18.20;78.50;;;;;;5082157;28;20000;-75
2023/07/21 05:56:41;;;;;;;;;;;18.20;78.50;;;;;;5081014;28;20290;-74
2023/07/21 05:59:07;;;;;;;;;;;18.20;78.50;;;;;;5087293;28;19912;-73
2023/07/21 06:01:34;;;;;;;;;;;18.20;78.60;;;;;;5088831;28;20345;-73
2023/07/21 06:04:00;;;;;;;;;;;18.30;78.60;;;;;;5089613;28;19912;-73
2023/07/21 06:06:25;;;;;;;;;;;18.20;78.40;;;;;;5089199;28;20311;-74
2023/07/21 06:08:51;;;;;;;;;;;18.30;78.50;;;;;;5088596;28;19938;-74
2023/07/21 06:11:17;;;;;;;;;;;18.30;78.20;;;;;;5088100;28;19917;-74
2023/07/21 06:13:42;;;;;;;;;;;18.30;78.30;;;;;;5076726;28;19920;-74
2023/07/21 06:16:08;;;;;;;;;;;18.30;78.30;;;;;;5049263;28;20023;-74
2023/07/21 06:18:35;;;;;;;;;;;18.30;78.30;;;;;;5067884;28;20624;-74
2023/07/21 06:21:02;;;;;;;;;;;18.30;78.30;;;;;;5078038;28;19916;-74
2023/07/21 06:23:28;;;;;;;;;;;18.30;78.30;;;;;;5069453;28;19920;-74
2023/07/21 06:25:53;;;;;;;;;;;18.30;78.20;;;;;;5070440;28;20339;-74
2023/07/21 06:28:19;;;;;;;;;;;18.30;78.20;;;;;;5086724;28;19915;-74
2023/07/21 06:30:45;;;;;;;;;;;18.40;78.30;;;;;;5088005;28;20478;-74
2023/07/21 06:33:11;;;;;;;;;;;18.40;78.90;;;;;;5088296;28;20003;-75
2023/07/21 06:35:36;;;;;;;;;;;18.40;78.20;;;;;;5069951;28;19912;-75
2023/07/21 06:38:03;;;;;;;;;;;18.40;78.30;;;;;;5104451;28;20522;-75
2023/07/21 06:40:30;;;;;;;;;;;18.30;78.20;;;;;;5108606;28;19947;-75
2023/07/21 06:42:56;;;;;;;;;;;18.40;78.20;;;;;;5093309;28;20300;-75
2023/07/21 06:45:22;;;;;;;;;;;18.40;78.10;;;;;;5087650;28;19912;-75
2023/07/21 06:47:47;;;;;;;;;;;18.40;78.10;;;;;;5069909;28;19922;-74
2023/07/21 06:50:13;;;;;;;;;;;18.40;78.20;;;;;;5069880;28;20426;-75
2023/07/21 06:52:39;;;;;;;;;;;18.50;78.30;;;;;;5089095;28;19950;-75
2023/07/21 06:55:05;;;;;;;;;;;18.50;78.20;;;;;;5074613;28;19908;-74
2023/07/21 06:57:31;;;;;;;;;;;18.50;78.40;;;;;;5084308;28;19995;-74
2023/07/21 06:59:57;;;;;;;;;;;18.60;78.30;;;;;;5087677;28;20011;-74
2023/07/21 07:02:22;;;;;;;;;;;18.60;78.20;;;;;;5089250;28;19912;-73
2023/07/21 07:04:48;;;;;;;;;;;18.60;78.20;;;;;;5091743;28;19909;-73
2023/07/21 07:07:14;;;;;;;;;;;18.60;78.10;;;;;;5090921;28;19999;-73
2023/07/21 07:09:40;;;;;;;;;;;18.60;78.00;;;;;;5092629;28;20469;-73
2023/07/21 07:12:06;;;;;;;;;;;18.70;78.10;;;;;;5098815;28;19911;-74
2023/07/21 07:14:31;;;;;;;;;;;18.70;78.10;;;;;;5093028;28;19916;-74
2023/07/21 07:16:57;;;;;;;;;;;18.70;78.20;;;;;;5072652;28;19938;-76
2023/07/21 07:19:22;;;;;;;;;;;18.70;78.10;;;;;;5091377;28;20333;-76
2023/07/21 07:21:48;;;;;;;;;;;18.70;78.10;;;;;;5091340;28;19934;-75
2023/07/21 07:24:13;;;;;;;;;;;18.70;78.00;;;;;;5085221;28;19939;-75
2023/07/21 07:26:39;;;;;;;;;;;18.70;78.00;;;;;;5084764;28;20372;-75
2023/07/21 07:29:04;;;;;;;;;;;18.80;77.80;;;;;;5091238;28;19951;-75
2023/07/21 07:31:30;;;;;;;;;;;18.80;77.80;;;;;;5072875;28;19912;-76
2023/07/21 07:33:56;;;;;;;;;;;18.80;77.90;;;;;;5084111;28;19916;-75
2023/07/21 07:36:21;;;;;;;;;;;18.80;77.90;;;;;;5089810;28;19938;-75
2023/07/21 07:38:47;;;;;;;;;;;18.80;78.40;;;;;;5090776;28;19912;-75
2023/07/21 07:41:13;;;;;;;;;;;18.80;77.70;;;;;;5090826;28;19923;-75
2023/07/21 07:43:38;;;;;;;;;;;18.80;77.60;;;;;;5085221;28;19916;-76
2023/07/21 07:46:07;;;;;;;;;;;18.90;77.70;;;;;;5090193;28;20605;-75
2023/07/21 07:48:35;;;;;;;;;;;18.80;77.40;;;;;;5090462;28;19920;-76
2023/07/21 07:51:07;;;;;;;;;;;18.90;77.40;;;;;;5090528;28;19931;-76
2023/07/21 07:53:33;;;;;;;;;;;18.90;77.40;;;;;;5072239;28;19912;-75
2023/07/21 07:55:58;;;;;;;;;;;18.90;77.10;;;;;;5090170;28;19912;-74
2023/07/21 07:58:24;;;;;;;;;;;18.90;77.10;;;;;;5079404;28;19920;-74
2023/07/21 08:00:54;;;;;;;;;;;19.00;77.10;;;;;;5110997;28;19911;-75
2023/07/21 08:03:19;;;;;;;;;;;19.00;77.00;;;;;;5110256;28;19918;-74
2023/07/21 08:05:47;;;;;;;;;;;19.10;76.90;;;;;;5090073;28;19912;-75
2023/07/21 08:08:13;;;;;;;;;;;19.10;76.70;;;;;;5096212;28;20538;-75
2023/07/21 08:10:39;;;;;;;;;;;19.10;76.70;;;;;;5110693;28;19955;-76
2023/07/21 08:13:05;;;;;;;;;;;19.20;76.60;;;;;;5103389;28;19994;-75
2023/07/21 08:15:30;;;;;;;;;;;19.20;76.60;;;;;;5102007;28;20029;-74
2023/07/21 08:17:56;;;;;;;;;;;19.30;76.60;;;;;;5110695;28;19942;-76
2023/07/21 08:20:21;;;;;;;;;;;19.30;76.30;;;;;;5110421;28;19908;-77
2023/07/21 08:22:50;;;;;;;;;;;19.30;76.30;;;;;;5110431;28;19912;-77
2023/07/21 08:25:16;;;;;;;;;;;19.40;76.20;;;;;;5095414;28;19923;-76
2023/07/21 08:27:42;;;;;;;;;;;19.40;76.10;;;;;;5089214;28;19920;-78
2023/07/21 08:30:08;;;;;;;;;;;19.40;76.00;;;;;;5090452;28;19912;-75
2023/07/21 08:32:38;;;;;;;;;;;19.40;75.90;;;;;;5089947;28;19909;-77
2023/07/21 08:35:04;;;;;;;;;;;19.50;76.00;;;;;;5088905;28;19991;-76
2023/07/21 08:37:30;;;;;;;;;;;19.50;76.00;;;;;;5089344;28;19965;-76
2023/07/21 08:39:56;;;;;;;;;;;19.50;75.60;;;;;;5089787;28;19923;-78
2023/07/21 08:42:23;;;;;;;;;;;19.60;76.20;;;;;;5086214;28;19908;-75
2023/07/21 08:44:49;;;;;;;;;;;19.60;75.60;;;;;;5085580;28;19919;-76
2023/07/21 08:47:14;;;;;;;;;;;19.60;75.60;;;;;;5090145;28;19923;-74
2023/07/21 08:49:40;;;;;;;;;;;19.70;75.40;;;;;;5089614;28;19955;-73
2023/07/21 08:52:06;;;;;;;;;;;19.70;75.40;;;;;;5089282;28;19919;-73
2023/07/21 08:54:32;;;;;;;;;;;19.70;75.20;;;;;;5089310;28;19911;-75
2023/07/21 08:56:57;;;;;;;;;;;19.80;75.20;;;;;;5088787;28;19912;-75
2023/07/21 08:59:23;;;;;;;;;;;19.80;75.20;;;;;;5089623;28;19912;-75
2023/07/21 09:01:48;;;;;;;;;;;19.80;74.90;;;;;;5089158;28;19913;-73
2023/07/21 09:04:22;;;;;;;;;;;19.90;75.10;;;;;;5092396;28;20573;-73
2023/07/21 09:06:58;;;;;;;;;;;19.90;75.00;;;;;;5088450;28;20595;-74
2023/07/21 09:09:24;;;;;;;;;;;19.90;74.90;;;;;;5088992;28;19912;-74
2023/07/21 09:11:50;;;;;;;;;;;20.00;74.90;;;;;;5094422;28;19915;-74
2023/07/21 09:14:16;;;;;;;;;;;20.00;74.90;;;;;;5093388;28;19916;-74
2023/07/21 09:16:42;;;;;;;;;;;20.10;74.70;;;;;;5088614;28;19908;-74
2023/07/21 09:19:09;;;;;;;;;;;20.10;74.70;;;;;;5069830;28;19991;-74
2023/07/21 09:21:37;;;;;;;;;;;20.10;74.50;;;;;;5070736;28;19916;-75
2023/07/21 09:24:03;;;;;;;;;;;20.10;74.40;;;;;;5083118;28;20512;-73
2023/07/21 09:26:29;;;;;;;;;;;20.10;74.60;;;;;;5075324;28;19916;-74
2023/07/21 09:28:54;;;;;;;;;;;20.10;74.70;;;;;;5088120;28;20435;-73
2023/07/21 09:31:31;;;;;;;;;;;20.10;74.50;;;;;;5088162;28;19998;-74
2023/07/21 09:34:04;;;;;;;;;;;20.20;74.40;;;;;;5087925;28;19916;-74
2023/07/21 09:36:30;;;;;;;;;;;20.30;74.20;;;;;;5088773;28;19994;-74
2023/07/21 09:38:55;;;;;;;;;;;20.30;74.10;;;;;;5097795;28;20396;-74
2023/07/21 09:41:23;;;;;;;;;;;20.30;74.10;;;;;;5107992;28;19916;-74
2023/07/21 09:43:48;;;;;;;;;;;20.40;74.00;;;;;;5086891;28;19912;-74
2023/07/21 09:46:14;;;;;;;;;;;20.50;73.80;;;;;;5086794;28;19935;-75
2023/07/21 09:48:41;;;;;;;;;;;20.50;73.70;;;;;;5087694;28;19926;-75
2023/07/21 09:51:07;;;;;;;;;;;20.60;73.50;;;;;;5099478;28;19915;-75
2023/07/21 09:53:40;;;;;;;;;;;20.50;73.90;;;;;;5108457;28;20408;-74
2023/07/21 09:56:06;;;;;;;;;;;20.60;73.50;;;;;;5078969;28;20395;-75
2023/07/21 09:58:34;;;;;;;;;;;20.60;73.50;;;;;;5088075;28;20700;-74
2023/07/21 10:01:03;;;;;;;;;;;20.60;73.50;;;;;;5072276;28;20006;-74
2023/07/21 10:03:29;;;;;;;;;;;20.50;73.50;;;;;;5088108;28;19973;-74
2023/07/21 10:05:56;;;;;;;;;;;20.50;73.50;;;;;;5092993;28;19917;-74
2023/07/21 10:08:21;;;;;;;;;;;20.60;73.50;;;;;;5087860;28;20289;-74
2023/07/21 10:10:47;;;;;;;;;;;20.70;73.00;;;;;;5087955;28;19916;-74
2023/07/21 10:13:13;;;;;;;;;;;20.70;73.00;;;;;;5097412;28;19965;-74
2023/07/21 10:15:40;;;;;;;;;;;20.80;73.20;;;;;;5087881;28;19995;-74
2023/07/21 10:18:13;;;;;;;;;;;20.80;73.10;;;;;;5088199;28;19912;-74
2023/07/21 10:20:39;;;;;;;;;;;20.80;73.00;;;;;;5088101;28;20292;-74
2023/07/21 10:23:05;;;;;;;;;;;20.80;72.80;;;;;;5089331;28;19985;-74
2023/07/21 10:25:49;;;;;;;;;;;20.80;72.50;;;;;;5053388;28;19963;-74
2023/07/21 10:28:15;;;;;;;;;;;20.90;72.80;;;;;;5087822;28;19923;-74
2023/07/21 10:30:43;;;;;;;;;;;20.90;73.30;;;;;;5088237;28;19908;-74
2023/07/21 10:33:20;;;;;;;;;;;21.00;72.50;;;;;;5088136;28;20318;-75
2023/07/21 10:35:47;;;;;;;;;;;21.00;72.40;;;;;;5068015;28;20293;-74
2023/07/21 10:38:13;;;;;;;;;;;21.10;72.30;;;;;;5071509;28;19909;-75
2023/07/21 10:40:42;;;;;;;;;;;21.10;72.30;;;;;;5092702;28;20391;-75
2023/07/21 10:43:07;;;;;;;;;;;21.10;72.30;;;;;;5099049;28;19912;-74
2023/07/21 10:45:33;;;;;;;;;;;21.20;72.30;;;;;;5094408;28;20269;-75
2023/07/21 10:48:11;;;;;;;;;;;21.20;72.10;;;;;;5091807;28;19919;-75
2023/07/21 10:50:39;;;;;;;;;;;21.30;72.10;;;;;;5091681;28;20015;-74
2023/07/21 10:53:05;;;;;;;;;;;21.30;72.00;;;;;;5091766;28;19935;-75
2023/07/21 10:55:31;;;;;;;;;;;21.30;72.00;;;;;;5090591;28;19912;-75
2023/07/21 10:57:56;;;;;;;;;;;21.40;72.00;;;;;;5085104;28;19920;-75
2023/07/21 11:00:22;;;;;;;;;;;21.40;71.70;;;;;;5090439;28;19912;-74
2023/07/21 11:02:52;;;;;;;;;;;21.50;71.60;;;;;;5091045;28;19912;-76
2023/07/21 11:05:18;;;;;;;;;;;21.60;71.60;;;;;;5095311;28;19919;-75
2023/07/21 11:07:43;;;;;;;;;;;21.70;71.30;;;;;;5090705;28;20669;-76
2023/07/21 11:10:09;;;;;;;;;;;21.70;71.50;;;;;;5091097;28;19912;-76
2023/07/21 11:12:36;;;;;;;;;;;21.80;71.40;;;;;;5083380;28;19915;-75
2023/07/21 11:15:02;;;;;;;;;;;21.80;71.40;;;;;;5091057;28;19912;-76
2023/07/21 11:17:31;;;;;;;;;;;21.90;71.60;;;;;;5072721;28;20534;-75
2023/07/21 11:20:04;;;;;;;;;;;22.00;71.30;;;;;;5072906;28;19912;-76
2023/07/21 11:22:29;;;;;;;;;;;22.10;71.10;;;;;;5091365;28;19912;-76
2023/07/21 11:25:10;;;;;;;;;;;22.20;70.30;;;;;;5079054;28;19920;-76
2023/07/21 11:27:41;;;;;;;;;;;22.30;70.30;;;;;;5098080;28;19923;-76
2023/07/21 11:30:07;;;;;;;;;;;22.40;69.50;;;;;;5091263;28;19912;-74
2023/07/21 11:32:34;;;;;;;;;;;22.50;69.20;;;;;;5086875;28;20320;-76
2023/07/21 11:35:02;;;;;;;;;;;22.60;70.40;;;;;;5090193;28;20334;-75
2023/07/21 11:37:41;;;;;;;;;;;22.70;70.00;;;;;;5089298;28;19912;-76
2023/07/21 11:40:15;;;;;;;;;;;22.70;68.40;;;;;;5089195;28;20434;-76
2023/07/21 11:42:41;;;;;;;;;;;22.80;68.80;;;;;;5080778;28;19966;-77
2023/07/21 11:45:28;;;;;;;;;;;22.80;69.10;;;;;;5089975;28;19916;-78
2023/07/21 11:47:53;;;;;;;;;;;22.80;69.20;;;;;;5071554;28;19916;-77
2023/07/21 11:50:19;;;;;;;;;;;22.80;69.40;;;;;;5090470;28;20332;-77
2023/07/21 11:52:46;;;;;;;;;;;22.80;69.20;;;;;;5072559;28;19912;-77
2023/07/21 11:55:12;;;;;;;;;;;22.80;69.40;;;;;;5090660;28;20411;-75
2023/07/21 11:57:37;;;;;;;;;;;22.80;70.00;;;;;;5090017;28;19998;-78
2023/07/21 12:00:11;;;;;;;;;;;22.90;69.70;;;;;;5091410;28;19916;-77
2023/07/21 12:02:36;;;;;;;;;;;23.00;70.30;;;;;;5076271;28;19916;-78
2023/07/21 12:05:03;;;;;;;;;;;23.00;69.50;;;;;;5096128;28;19943;-78
2023/07/21 12:07:29;;;;;;;;;;;23.10;69.20;;;;;;5090012;28;19970;-75
2023/07/21 12:09:55;;;;;;;;;;;23.10;68.50;;;;;;5072138;28;20379;-75
2023/07/21 12:12:20;;;;;;;;;;;23.20;68.10;;;;;;5100413;28;20010;-77
2023/07/21 12:14:46;;;;;;;;;;;23.20;68.20;;;;;;5070620;28;19954;-75
2023/07/21 12:17:14;;;;;;;;;;;23.30;68.50;;;;;;5091173;28;19976;-77
2023/07/21 12:19:40;;;;;;;;;;;23.40;68.50;;;;;;5090819;28;19943;-78
2023/07/21 12:22:10;;;;;;;;;;;23.40;67.80;;;;;;5090531;28;19989;-76
2023/07/21 12:24:36;;;;;;;;;;;23.60;67.40;;;;;;5081221;28;20471;-78
2023/07/21 12:27:02;;;;;;;;;;;23.60;67.40;;;;;;5061152;28;19920;-77
2023/07/21 12:29:27;;;;;;;;;;;23.60;67.30;;;;;;5089551;28;20356;-79
2023/07/21 12:31:53;;;;;;;;;;;23.60;67.70;;;;;;5088393;28;19916;-78
2023/07/21 12:34:18;;;;;;;;;;;23.50;67.90;;;;;;5089981;28;19958;-78
2023/07/21 12:36:44;;;;;;;;;;;23.50;67.70;;;;;;5089857;28;19912;-78
2023/07/21 12:39:10;;;;;;;;;;;23.40;68.40;;;;;;5089708;28;20077;-77
2023/07/21 12:41:38;;;;;;;;;;;23.40;68.60;;;;;;5093724;28;20413;-78
2023/07/21 12:44:04;;;;;;;;;;;23.30;69.30;;;;;;5086992;28;20551;-76
2023/07/21 12:46:30;;;;;;;;;;;23.30;68.00;;;;;;5089515;28;19912;-76
2023/07/21 12:48:56;;;;;;;;;;;23.40;67.00;;;;;;5090629;28;20435;-76
2023/07/21 12:51:23;;;;;;;;;;;23.40;67.80;;;;;;5071749;28;20012;-75
2023/07/21 12:53:48;;;;;;;;;;;23.30;67.70;;;;;;5089101;28;19920;-73
2023/07/21 12:56:14;;;;;;;;;;;23.30;67.00;;;;;;5088859;28;19915;-74
2023/07/21 12:58:39;;;;;;;;;;;23.20;66.70;;;;;;5089012;28;20005;-73
2023/07/21 13:01:05;;;;;;;;;;;23.10;67.50;;;;;;5089017;28;19969;-72
2023/07/21 13:03:32;;;;;;;;;;;23.10;67.30;;;;;;5071953;28;19912;-71
2023/07/21 13:05:57;;;;;;;;;;;23.00;68.20;;;;;;5097242;28;20050;-71
2023/07/21 13:08:23;;;;;;;;;;;23.00;67.90;;;;;;5070834;28;20652;-70
2023/07/21 13:10:49;;;;;;;;;;;23.00;67.80;;;;;;5089255;28;20006;-72
2023/07/21 13:13:14;;;;;;;;;;;23.00;67.50;;;;;;5088974;28;19923;-69
2023/07/21 13:15:40;;;;;;;;;;;22.90;66.70;;;;;;5084050;28;19912;-72
2023/07/21 13:18:06;;;;;;;;;;;22.90;67.00;;;;;;5088004;28;19922;-73
2023/07/21 13:20:31;;;;;;;;;;;22.90;67.40;;;;;;5076097;28;19997;-75
2023/07/21 13:22:57;;;;;;;;;;;22.90;67.10;;;;;;5090738;28;19916;-72
2023/07/21 13:25:22;;;;;;;;;;;22.80;67.40;;;;;;5089145;28;19994;-70
2023/07/21 13:27:49;;;;;;;;;;;22.80;67.30;;;;;;5088001;28;20307;-70
2023/07/21 13:30:15;;;;;;;;;;;22.80;67.10;;;;;;5089154;28;20000;-71
2023/07/21 13:32:41;;;;;;;;;;;22.80;67.00;;;;;;5088473;28;19997;-70
2023/07/21 13:35:07;;;;;;;;;;;22.70;67.30;;;;;;5070745;28;19912;-70
2023/07/21 13:37:35;;;;;;;;;;;22.70;67.30;;;;;;5089767;28;19961;-70
2023/07/21 13:40:01;;;;;;;;;;;22.70;67.40;;;;;;5089020;28;19918;-71
2023/07/21 13:42:26;;;;;;;;;;;22.60;66.90;;;;;;5075043;28;19909;-70
2023/07/21 13:44:52;;;;;;;;;;;22.60;67.20;;;;;;5085226;28;19926;-70
2023/07/21 13:47:17;;;;;;;;;;;22.50;66.60;;;;;;5088569;28;19915;-71
2023/07/21 13:49:43;;;;;;;;;;;22.50;67.30;;;;;;5088621;28;19912;-72
2023/07/21 13:52:08;;;;;;;;;;;22.40;66.80;;;;;;5088794;28;19955;-72
2023/07/21 13:54:34;;;;;;;;;;;22.30;66.50;;;;;;5098693;28;19915;-72
2023/07/21 13:57:00;;;;;;;;;;;22.20;67.50;;;;;;5069444;28;20014;-71
2023/07/21 13:59:25;;;;;;;;;;;22.00;67.50;;;;;;5085949;28;19926;-71
2023/07/21 14:01:51;;;;;;;;;;;22.10;67.90;;;;;;5088894;28;20667;-72
2023/07/21 14:04:17;;;;;;;;;;;22.00;67.50;;;;;;5088515;28;19916;-71
2023/07/21 14:06:42;;;;;;;;;;;22.00;67.50;;;;;;5087916;28;19916;-71
2023/07/21 14:09:08;;;;;;;;;;;22.00;67.70;;;;;;5088388;28;19942;-71
2023/07/21 14:11:37;;;;;;;;;;;22.00;67.50;;;;;;5093795;28;19907;-72